Time;durP1;ratioP1;P1;durP2;ratioP2;P2;SDS_P1;SDS_P2;PMS_P1;PMS_P2;Temp;Humidity;BMP_temperature;BMP_pressure;BME280_temperature;BME280_humidity;BME280_pressure;Samples;Min_cycle;Max_cycle;Signal;HPM_P1;HPM_P2
2022/12/25 00:02:24;;;;;;;85.15;23.88;;;;;;;;;;5094166;28;20128;-84
2022/12/25 00:05:08;;;;;;;80.65;20.65;;;5.80;99.90;;;;;;5095700;28;20039;-84
2022/12/25 00:07:53;;;;;;;82.43;21.65;;;;;;;;;;5069240;28;20496;-84
2022/12/25 00:10:37;;;;;;;73.00;21.45;;;;;;;;;;5093207;28;20463;-84
2022/12/25 00:13:22;;;;;;;73.93;21.25;;;;;;;;;;5094380;28;20039;-84
2022/12/25 00:16:09;;;;;;;80.50;20.35;;;5.70;99.90;;;;;;5094468;28;20090;-83
2022/12/25 00:18:55;;;;;;;77.32;21.45;;;5.70;99.90;;;;;;5095108;28;20086;-84
2022/12/25 00:21:40;;;;;;;73.05;21.27;;;;;;;;;;5093834;28;20396;-83
2022/12/25 00:24:24;;;;;;;77.03;20.13;;;;;;;;;;5094048;28;20393;-85
2022/12/25 00:27:09;;;;;;;89.25;20.90;;;;;;;;;;5093982;28;20109;-84
2022/12/25 00:29:53;;;;;;;71.77;21.77;;;;;;;;;;5093937;28;20047;-83
2022/12/25 00:32:38;;;;;;;81.32;20.75;;;;;;;;;;5094538;28;20148;-84
2022/12/25 00:35:23;;;;;;;67.95;19.65;;;;;;;;;;5093923;28;20062;-84
2022/12/25 00:38:07;;;;;;;84.65;21.38;;;5.80;99.90;;;;;;5079673;28;20111;-83
2022/12/25 00:40:52;;;;;;;80.88;21.23;;;;;;;;;;5094551;28;20067;-84
2022/12/25 00:43:37;;;;;;;88.17;22.20;;;;;;;;;;5094398;28;20089;-84
2022/12/25 00:46:22;;;;;;;89.75;22.85;;;;;;;;;;5093607;28;20093;-84
2022/12/25 00:49:06;;;;;;;78.38;22.10;;;;;;;;;;5079515;28;20039;-83
2022/12/25 00:51:51;;;;;;;78.93;22.02;;;;;;;;;;5092890;28;20510;-84
2022/12/25 00:54:35;;;;;;;88.28;23.15;;;;;;;;;;5094049;28;20071;-84
2022/12/25 00:57:20;;;;;;;77.37;21.23;;;;;;;;;;5079290;28;20494;-83
2022/12/25 01:00:04;;;;;;;96.25;22.60;;;;;;;;;;5093477;28;20074;-83
2022/12/25 01:02:49;;;;;;;76.63;22.47;;;;;;;;;;5092852;28;20066;-84
2022/12/25 01:05:33;;;;;;;82.93;22.70;;;;;;;;;;5078715;28;20043;-84
2022/12/25 01:08:18;;;;;;;74.00;21.57;;;;;;;;;;5078850;28;20165;-84
2022/12/25 01:11:06;;;;;;;107.20;25.92;;;5.90;99.90;;;;;;5093173;28;20507;-83
2022/12/25 01:13:50;;;;;;;83.80;22.48;;;;;;;;;;5092719;28;20039;-84
2022/12/25 01:16:35;;;;;;;99.37;25.90;;;;;;;;;;5092951;28;20080;-84
2022/12/25 01:19:19;;;;;;;110.63;27.25;;;;;;;;;;5093087;28;20071;-83
2022/12/25 01:22:04;;;;;;;139.57;30.00;;;;;;;;;;5093039;28;20047;-84
2022/12/25 01:24:48;;;;;;;133.30;29.92;;;;;;;;;;5092677;28;20047;-84
2022/12/25 01:27:33;;;;;;;145.13;29.88;;;;;;;;;;5092775;28;20085;-84
2022/12/25 01:30:18;;;;;;;185.93;34.42;;;;;;;;;;5092906;28;20046;-83
2022/12/25 01:33:02;;;;;;;158.45;31.02;;;;;;;;;;5092829;28;20047;-83
2022/12/25 01:35:47;;;;;;;156.57;31.80;;;;;;;;;;5093238;28;20039;-84
2022/12/25 01:38:31;;;;;;;162.05;33.55;;;;;;;;;;5092765;28;20084;-83
2022/12/25 01:41:17;;;;;;;169.75;34.42;;;;;;;;;;5078415;28;20039;-83
2022/12/25 01:44:36;;;;;;;139.48;31.25;;;6.30;99.90;;;;;;5092442;28;20563;-84
2022/12/25 01:47:21;;;;;;;127.13;28.95;;;;;;;;;;5093575;28;20039;-83
2022/12/25 01:50:05;;;;;;;135.75;30.67;;;5.60;99.90;;;;;;5069646;28;20055;-83
2022/12/25 01:52:51;;;;;;;162.38;33.47;;;;;;;;;;5113198;28;20407;-84
2022/12/25 01:55:37;;;;;;;119.72;29.05;;;6.40;99.90;;;;;;5098438;28;20046;-83
2022/12/25 01:58:22;;;;;;;132.02;29.95;;;;;;;;;;5113737;28;20479;-84
2022/12/25 02:01:07;;;;;;;122.95;29.05;;;6.40;99.90;;;;;;5097703;28;20050;-84
2022/12/25 02:03:56;;;;;;;106.57;29.20;;;6.40;99.90;;;;;;5097776;28;20119;-83
2022/12/25 02:06:41;;;;;;;107.50;28.27;;;;;;;;;;5112200;28;20107;-84
2022/12/25 02:09:25;;;;;;;106.63;27.83;;;;;;;;;;5102688;28;20039;-83
2022/12/25 02:12:22;;;;;;;104.50;27.73;;;6.50;99.90;;;;;;5113286;28;20053;-83
2022/12/25 02:15:18;;;;;;;105.63;27.02;;;6.50;99.90;;;;;;5097878;28;20138;-84
2022/12/25 02:18:20;;;;;;;95.07;27.08;;;6.50;99.90;;;;;;5097604;28;20085;-83
2022/12/25 02:21:04;;;;;;;94.03;27.30;;;;;;;;;;5087040;28;20038;-84
2022/12/25 02:23:52;;;;;;;92.18;25.58;;;;;;;;;;5095756;28;20509;-83
2022/12/25 02:27:03;;;;;;;98.80;26.90;;;6.60;99.90;;;;;;5094592;28;20061;-84
2022/12/25 02:30:01;;;;;;;87.93;24.83;;;6.60;99.90;;;;;;5096175;28;20035;-83
2022/12/25 02:34:01;;;;;;;75.20;23.40;;;6.50;99.90;;;;;;5083988;28;20115;-84
2022/12/25 02:36:04;;;;;;;78.63;23.20;;;6.60;99.90;;;;;;5096902;28;20042;-84
2022/12/25 02:42:01;;;;;;;94.30;25.10;;;6.60;99.90;;;;;;5094862;28;20081;-84
2022/12/25 03:06:41;;;;;;;;;;;6.80;99.90;;;;;;5092241;28;20042;-84
2022/12/25 03:12:41;;;;;;;81.05;23.77;;;;;;;;;;5113778;28;20070;-84
2022/12/25 03:18:31;;;;;;;71.80;23.35;;;6.90;99.90;;;;;;5116985;28;20053;-83
2022/12/25 03:27:23;;;;;;;71.50;23.05;;;7.00;99.90;;;;;;5116484;28;20311;-84
2022/12/25 03:33:37;;;;;;;88.78;24.35;;;7.10;99.90;;;;;;5067692;28;20491;-83
2022/12/25 03:36:35;;;;;;;72.93;23.20;;;7.20;99.90;;;;;;5114169;28;20052;-84
2022/12/25 04:38:11;;;;;;;77.15;21.35;;;;;;;;;;5102158;28;20058;-84
2022/12/25 04:40:55;;;;;;;66.75;21.98;;;;;;;;;;5100008;28;20039;-83
2022/12/25 04:43:40;;;;;;;66.63;21.30;;;;;;;;;;5090036;28;20399;-83
2022/12/25 04:46:25;;;;;;;75.70;23.45;;;;;;;;;;5114774;28;20433;-84
2022/12/25 04:49:09;;;;;;;80.03;23.52;;;;;;;;;;5114763;28;20070;-84
2022/12/25 04:51:54;;;;;;;86.95;23.15;;;;;;;;;;5099442;28;20058;-83
2022/12/25 04:54:38;;;;;;;76.82;22.95;;;;;;;;;;5099615;28;20527;-84
2022/12/25 04:57:23;;;;;;;95.55;22.65;;;;;;;;;;5114536;28;20162;-83
2022/12/25 05:00:08;;;;;;;68.82;22.75;;;;;;;;;;5114427;28;20030;-83
2022/12/25 05:02:52;;;;;;;90.82;24.92;;;;;;;;;;5085372;28;20395;-84
2022/12/25 05:05:39;;;;;;;90.38;25.08;;;7.50;99.90;;;;;;5099623;28;20061;-83
2022/12/25 05:08:24;;;;;;;87.20;25.20;;;;;;;;;;5114235;28;20069;-83
2022/12/25 05:11:10;;;;;;;104.07;27.35;;;7.60;99.90;;;;;;5098443;28;20553;-84
2022/12/25 05:13:56;;;;;;;82.70;25.25;;;7.60;99.90;;;;;;5114597;28;20043;-83
2022/12/25 05:16:41;;;;;;;103.00;27.05;;;;;;;;;;5114573;28;20047;-83
2022/12/25 05:19:26;;;;;;;88.70;25.77;;;;;;;;;;5089568;28;20046;-84
2022/12/25 05:22:10;;;;;;;112.75;29.00;;;;;;;;;;5098523;28;20404;-84
2022/12/25 05:24:55;;;;;;;104.55;29.38;;;;;;;;;;5099188;28;20043;-83
2022/12/25 05:27:39;;;;;;;104.00;27.48;;;;;;;;;;5098940;28;20089;-83
2022/12/25 05:30:24;;;;;;;106.65;25.48;;;;;;;;;;5098271;28;20034;-84
2022/12/25 05:33:08;;;;;;;111.40;28.77;;;;;;;;;;5108776;28;20081;-84
2022/12/25 05:35:53;;;;;;;111.35;29.60;;;;;;;;;;5106783;28;20115;-83
2022/12/25 05:38:37;;;;;;;107.30;28.33;;;;;;;;;;5084461;28;20145;-84
2022/12/25 05:41:22;;;;;;;125.20;28.98;;;;;;;;;;5098072;28;20522;-84
2022/12/25 05:44:07;;;;;;;119.75;30.20;;;;;;;;;;5114043;28;20433;-83
2022/12/25 05:46:51;;;;;;;124.68;31.08;;;;;;;;;;5084144;28;20039;-84
2022/12/25 05:49:36;;;;;;;128.73;31.67;;;;;;;;;;5113811;28;20058;-84
2022/12/25 05:52:20;;;;;;;150.45;34.35;;;;;;;;;;5113197;28;20099;-83
2022/12/25 05:55:05;;;;;;;125.82;32.35;;;8.00;99.90;;;;;;5098383;28;20034;-83
2022/12/25 05:57:49;;;;;;;132.27;33.53;;;;;;;;;;5127344;27;20061;-83
2022/12/25 06:00:34;;;;;;;127.07;33.47;;;;;;;;;;5098029;28;20065;-84
2022/12/25 06:03:18;;;;;;;137.50;33.63;;;;;;;;;;5097831;28;20043;-84
2022/12/25 06:06:04;;;;;;;141.02;33.03;;;8.00;99.90;;;;;;5113580;28;20434;-84
2022/12/25 06:08:48;;;;;;;139.20;32.33;;;;;;;;;;5098010;28;20061;-84
2022/12/25 06:11:33;;;;;;;130.57;31.23;;;;;;;;;;5113026;28;20449;-84
2022/12/25 06:14:17;;;;;;;135.65;32.17;;;;;;;;;;5088083;28;20050;-84
2022/12/25 06:17:02;;;;;;;148.93;33.83;;;;;;;;;;5113385;28;20119;-83
2022/12/25 06:19:46;;;;;;;137.18;33.13;;;;;;;;;;5097853;28;20544;-84
2022/12/25 06:22:32;;;;;;;144.38;33.78;;;8.10;99.90;;;;;;5112816;28;20042;-83
2022/12/25 06:25:16;;;;;;;149.93;33.85;;;;;;;;;;5083166;28;20042;-84
2022/12/25 06:28:01;;;;;;;140.68;33.72;;;;;;;;;;5097986;28;20053;-83
2022/12/25 06:30:46;;;;;;;153.30;35.38;;;;;;;;;;5113052;28;20035;-84
2022/12/25 06:33:30;;;;;;;143.48;35.15;;;8.10;99.90;;;;;;5089242;28;20074;-84
2022/12/25 06:36:20;;;;;;;136.80;34.30;;;8.20;99.90;;;;;;5122983;27;20088;-83
2022/12/25 06:39:05;;;;;;;129.18;33.17;;;;;;;;;;5097813;28;20065;-84
2022/12/25 06:41:50;;;;;;;133.35;33.53;;;;;;;;;;5085775;28;20046;-84
2022/12/25 06:44:34;;;;;;;141.80;35.45;;;;;;;;;;5097079;28;20069;-85
2022/12/25 06:47:18;;;;;;;122.93;32.22;;;;;;;;;;5082867;28;20454;-85
2022/12/25 06:50:04;;;;;;;133.88;35.45;;;8.30;99.90;;;;;;5083327;28;20042;-84
2022/12/25 06:52:49;;;;;;;130.60;32.85;;;;;;;;;;5112929;28;20070;-84
2022/12/25 06:55:33;;;;;;;135.23;32.92;;;;;;;;;;5082909;28;20065;-84
2022/12/25 06:58:18;;;;;;;116.65;32.05;;;;;;;;;;5090419;28;20077;-84
2022/12/25 07:01:13;;;;;;;108.63;29.60;;;8.50;99.90;;;;;;5109672;28;20039;-85
2022/12/25 07:04:00;;;;;;;115.93;30.45;;;8.40;99.90;;;;;;5090679;28;20039;-84
2022/12/25 07:06:45;;;;;;;125.03;32.03;;;;;;;;;;5108326;28;20035;-85
2022/12/25 07:09:30;;;;;;;107.55;30.63;;;;;;;;;;5095817;28;20031;-84
2022/12/25 07:12:20;;;;;;;111.20;29.67;;;8.20;99.90;;;;;;5077744;28;20062;-84
2022/12/25 07:15:05;;;;;;;85.93;28.63;;;;;;;;;;5091909;28;20074;-84
2022/12/25 07:17:49;;;;;;;97.15;30.60;;;;;;;;;;5077181;28;20043;-84
2022/12/25 07:20:35;;;;;;;99.78;31.40;;;8.40;99.90;;;;;;5089067;28;20487;-84
2022/12/25 07:23:20;;;;;;;104.47;30.48;;;;;;;;;;5076774;28;20515;-85
2022/12/25 07:26:04;;;;;;;89.53;28.08;;;;;;;;;;5076736;28;20074;-84
2022/12/25 07:28:49;;;;;;;88.85;29.33;;;;;;;;;;5076619;28;20031;-84
2022/12/25 07:31:33;;;;;;;96.13;30.48;;;;;;;;;;5090552;28;20067;-84
2022/12/25 07:34:18;;;;;;;83.60;28.02;;;;;;;;;;5075489;28;20047;-84
2022/12/25 07:37:03;;;;;;;82.97;26.90;;;;;;;;;;5112449;28;20056;-84
2022/12/25 07:39:48;;;;;;;93.30;28.08;;;;;;;;;;5111732;28;20074;-84
2022/12/25 07:42:32;;;;;;;92.22;29.73;;;;;;;;;;5095367;28;20077;-84
2022/12/25 07:45:17;;;;;;;95.57;28.65;;;;;;;;;;5072968;28;20058;-84
2022/12/25 07:48:01;;;;;;;72.18;24.50;;;;;;;;;;5071731;28;20051;-84
2022/12/25 07:50:46;;;;;;;70.53;25.35;;;;;;;;;;5090788;28;20499;-85
2022/12/25 07:53:30;;;;;;;81.45;25.65;;;8.50;99.90;;;;;;5075770;28;20061;-86
2022/12/25 07:56:16;;;;;;;72.57;25.83;;;;;;;;;;5091503;28;20080;-84
2022/12/25 07:59:01;;;;;;;63.92;23.38;;;;;;;;;;5078055;28;20503;-84
2022/12/25 08:01:45;;;;;;;69.95;23.20;;;;;;;;;;5079399;28;20407;-87
2022/12/25 08:04:30;;;;;;;61.42;21.75;;;;;;;;;;5094535;28;20043;-84
2022/12/25 08:07:15;;;;;;;56.30;22.35;;;;;;;;;;5079769;28;20061;-84
2022/12/25 08:09:59;;;;;;;56.78;21.25;;;;;;;;;;5088214;28;20040;-85
2022/12/25 08:12:44;;;;;;;61.72;21.40;;;;;;;;;;5079032;28;20039;-85
2022/12/25 08:15:29;;;;;;;53.78;21.00;;;8.50;99.90;;;;;;5079600;28;20088;-85
2022/12/25 08:18:14;;;;;;;56.22;20.80;;;;;;;;;;5108323;28;20040;-84
2022/12/25 08:21:07;;;;;;;46.10;20.13;;;8.70;99.90;;;;;;5095066;28;20499;-84
2022/12/25 08:23:52;;;;;;;46.88;19.70;;;;;;;;;;5090599;28;20086;-85
2022/12/25 08:26:37;;;;;;;51.40;19.20;;;;;;;;;;5078910;28;20039;-85
2022/12/25 08:29:21;;;;;;;49.83;19.88;;;;;;;;;;5107945;28;20434;-85
2022/12/25 08:32:05;;;;;;;42.67;19.02;;;;;;;;;;5102151;28;20059;-85
2022/12/25 08:34:50;;;;;;;44.22;18.67;;;;;;;;;;5099010;28;20112;-84
2022/12/25 08:37:35;;;;;;;41.90;18.13;;;;;;;;;;5099185;28;20443;-86
2022/12/25 08:40:20;;;;;;;42.47;17.25;;;8.50;99.90;;;;;;5098844;28;20042;-84
2022/12/25 08:43:04;;;;;;;34.95;17.98;;;;;;;;;;5092803;28;20057;-84
2022/12/25 08:45:49;;;;;;;41.08;17.60;;;;;;;;;;5087483;28;20038;-84
2022/12/25 08:48:34;;;;;;;38.10;17.08;;;;;;;;;;5094209;28;20082;-87
2022/12/25 08:51:21;;;;;;;38.47;16.52;;;8.50;99.90;;;;;;5094265;28;20067;-85
2022/12/25 08:54:05;;;;;;;47.22;17.85;;;;;;;;;;5083625;28;20404;-84
2022/12/25 08:56:50;;;;;;;35.78;15.80;;;;;;;;;;5096309;28;20524;-84
2022/12/25 08:59:34;;;;;;;38.00;16.05;;;;;;;;;;5093181;28;20400;-83
2022/12/25 09:02:19;;;;;;;35.60;16.17;;;;;;;;;;5084248;28;20075;-83
2022/12/25 09:05:03;;;;;;;37.28;14.93;;;;;;;;;;5111760;28;20498;-83
2022/12/25 09:07:48;;;;;;;39.15;15.38;;;;;;;;;;5108399;28;20066;-83
2022/12/25 09:10:35;;;;;;;31.85;14.57;;;8.50;99.90;;;;;;5093466;28;20504;-83
2022/12/25 09:13:20;;;;;;;35.42;15.07;;;;;;;;;;5090174;28;20063;-83
2022/12/25 09:16:11;;;;;;;32.10;13.73;;;8.50;99.90;;;;;;5109130;28;20113;-83
2022/12/25 09:18:56;;;;;;;34.80;13.40;;;8.50;99.90;;;;;;5111506;28;20097;-83
2022/12/25 09:21:41;;;;;;;31.67;12.98;;;;;;;;;;5097833;28;20039;-84
2022/12/25 09:24:26;;;;;;;29.50;12.65;;;;;;;;;;5087870;28;20508;-83
2022/12/25 09:27:11;;;;;;;29.58;12.98;;;;;;;;;;5110341;28;20054;-83
2022/12/25 09:29:55;;;;;;;30.40;14.18;;;;;;;;;;5096388;28;20050;-84
2022/12/25 09:32:40;;;;;;;29.65;11.93;;;;;;;;;;5103622;28;20039;-84
2022/12/25 09:35:24;;;;;;;29.75;11.13;;;;;;;;;;5109704;28;20062;-83
2022/12/25 09:38:09;;;;;;;26.10;12.15;;;;;;;;;;5111578;28;20085;-84
2022/12/25 09:41:00;;;;;;;25.88;11.90;;;8.50;99.90;;;;;;5112078;28;20528;-84
2022/12/25 09:43:53;;;;;;;28.10;12.70;;;8.50;99.90;;;;;;5094058;28;20034;-84
2022/12/25 09:46:46;;;;;;;21.55;10.85;;;8.50;99.90;;;;;;5087216;28;20085;-84
2022/12/25 09:49:43;;;;;;;26.83;10.95;;;8.50;99.90;;;;;;5104118;28;20400;-83
2022/12/25 09:52:48;;;;;;;22.17;10.52;;;8.50;99.90;;;;;;5089371;28;20105;-83
2022/12/25 09:55:37;;;;;;;24.77;10.75;;;8.60;99.90;;;;;;5092377;28;20140;-83
2022/12/25 09:58:22;;;;;;;27.05;11.35;;;;;;;;;;5108616;28;20038;-84
2022/12/25 10:01:36;;;;;;;22.38;9.75;;;8.20;99.90;;;;;;5095627;28;20043;-84
2022/12/25 10:04:33;;;;;;;25.53;9.80;;;;;;;;;;5082664;28;20043;-84
2022/12/25 10:07:23;;;;;;;25.65;10.30;;;;;;;;;;5081210;28;20039;-84
2022/12/25 10:10:22;;;;;;;30.63;12.95;;;8.50;99.90;;;;;;5081562;28;20067;-84
2022/12/25 10:13:07;;;;;;;24.98;10.55;;;;;;;;;;5084220;28;20129;-83
2022/12/25 10:15:51;;;;;;;26.83;11.13;;;;;;;;;;5091335;28;20046;-83
2022/12/25 10:18:54;;;;;;;19.35;9.77;;;8.70;99.90;;;;;;5092765;28;20185;-83
2022/12/25 10:21:38;;;;;;;24.42;9.82;;;;;;;;;;5097967;28;20089;-83
2022/12/25 10:24:44;;;;;;;21.40;10.27;;;8.70;99.90;;;;;;5089746;28;20515;-83
2022/12/25 10:27:40;;;;;;;27.52;11.00;;;8.70;99.90;;;;;;5077322;28;20119;-84
2022/12/25 10:30:27;;;;;;;21.13;9.73;;;8.70;99.90;;;;;;5092782;28;20088;-84
2022/12/25 10:33:13;;;;;;;28.48;10.07;;;8.70;99.90;;;;;;5066208;28;20055;-83
2022/12/25 10:35:58;;;;;;;24.67;11.13;;;;;;;;;;5106768;28;20092;-85
2022/12/25 10:38:43;;;;;;;26.15;10.05;;;;;;;;;;5113149;28;20034;-83
2022/12/25 10:41:58;;;;;;;20.42;9.43;;;8.70;99.90;;;;;;5112964;28;20107;-83
2022/12/25 10:45:04;;;;;;;23.13;11.50;;;8.80;99.90;;;;;;5097715;28;20046;-84
2022/12/25 10:47:48;;;;;;;22.83;9.90;;;;;;;;;;5097793;28;20092;-84
2022/12/25 10:50:33;;;;;;;20.52;9.20;;;;;;;;;;5097616;28;20034;-83
2022/12/25 10:53:23;;;;;;;19.10;8.98;;;8.70;99.90;;;;;;5097682;28;20093;-84
2022/12/25 10:56:18;;;;;;;22.55;9.27;;;8.80;99.90;;;;;;5112593;28;20062;-83
2022/12/25 10:59:05;;;;;;;;;;;8.80;99.90;;;;;;5097656;28;20399;-83
2022/12/25 11:01:51;;;;;;;22.20;9.73;;;;;;;;;;5097419;28;20048;-83
2022/12/25 11:04:35;;;;;;;17.52;8.98;;;;;;;;;;5112870;28;20507;-83
2022/12/25 11:07:25;;;;;;;19.23;8.55;;;9.00;99.90;;;;;;5083245;28;20528;-84
2022/12/25 11:10:16;;;;;;;21.02;9.05;;;;;;;;;;5096956;28;20046;-83
2022/12/25 11:13:01;;;;;;;16.23;7.70;;;8.90;99.90;;;;;;5096954;28;20407;-83
2022/12/25 11:15:49;;;;;;;15.57;8.32;;;;;;;;;;5097228;28;20035;-83
2022/12/25 11:18:46;;;;;;;23.35;8.20;;;9.00;99.90;;;;;;5097248;28;20505;-83
2022/12/25 11:21:33;;;;;;;17.27;8.38;;;9.00;99.90;;;;;;5112815;28;20059;-84
2022/12/25 11:24:20;;;;;;;18.92;7.70;;;9.00;99.90;;;;;;5112249;28;20035;-83
2022/12/25 11:27:05;;;;;;;16.85;7.22;;;;;;;;;;5112173;28;20111;-84
2022/12/25 11:29:59;;;;;;;16.92;7.38;;;9.10;99.90;;;;;;5112750;28;20056;-83
2022/12/25 11:32:45;;;;;;;;;;;9.10;99.90;;;;;;5111215;28;20518;-83
2022/12/25 11:35:34;;;;;;;18.10;7.53;;;9.10;99.90;;;;;;5106707;28;19937;-83
2022/12/25 11:38:19;;;;;;;16.23;8.40;;;;;;;;;;5116015;28;20471;-83
2022/12/25 11:41:04;;;;;;;16.80;7.57;;;9.10;99.90;;;;;;5086469;28;20400;-84
2022/12/25 11:43:54;;;;;;;16.05;7.43;;;9.20;99.90;;;;;;5069468;28;20618;-83
2022/12/25 11:46:44;;;;;;;17.58;7.82;;;9.20;99.90;;;;;;5114416;28;20134;-83
2022/12/25 11:49:31;;;;;;;15.90;8.48;;;9.20;99.90;;;;;;5116515;28;20569;-83
2022/12/25 11:52:18;;;;;;;18.23;9.23;;;9.20;99.90;;;;;;5100133;28;20063;-84
2022/12/25 11:55:16;;;;;;;20.90;8.63;;;9.20;99.90;;;;;;5115599;28;20046;-83
2022/12/25 11:58:07;;;;;;;30.67;10.27;;;9.20;99.90;;;;;;5115865;28;20122;-84
2022/12/25 12:00:56;;;;;;;16.92;8.65;;;9.20;99.90;;;;;;5107537;27;20482;-83
2022/12/25 12:03:41;;;;;;;19.83;9.52;;;9.20;99.90;;;;;;5115977;28;20483;-83
2022/12/25 12:06:45;;;;;;;20.90;9.60;;;9.20;99.90;;;;;;5116246;28;20070;-83
2022/12/25 12:09:30;;;;;;;16.05;9.68;;;;;;;;;;5086467;28;20047;-84
2022/12/25 12:12:33;;;;;;;16.35;9.48;;;9.20;99.90;;;;;;5114058;28;20054;-84
2022/12/25 12:15:17;;;;;;;15.80;9.32;;;;;;;;;;5115272;28;20039;-84
2022/12/25 12:18:29;;;;;;;18.10;9.27;;;9.00;99.90;;;;;;5100524;28;20034;-84
2022/12/25 12:21:16;;;;;;;24.55;8.60;;;9.10;99.90;;;;;;5115242;28;20400;-85
2022/12/25 12:24:01;;;;;;;18.10;8.82;;;;;;;;;;5100049;28;20063;-84
2022/12/25 12:26:46;;;;;;;22.70;9.52;;;;;;;;;;5115675;28;20085;-84
2022/12/25 12:29:42;;;;;;;23.25;8.30;;;9.10;99.90;;;;;;5100081;28;20070;-84
2022/12/25 12:32:34;;;;;;;20.50;9.32;;;9.30;99.90;;;;;;5099472;28;20054;-84
2022/12/25 12:35:20;;;;;;;23.50;9.32;;;;;;;;;;5092191;28;20038;-84
2022/12/25 12:38:18;;;;;;;27.98;10.25;;;9.30;99.90;;;;;;5099686;28;20395;-86
2022/12/25 12:41:05;;;;;;;15.85;8.85;;;9.30;99.90;;;;;;5100038;28;20114;-84
2022/12/25 12:44:01;;;;;;;20.25;10.13;;;9.30;99.90;;;;;;5099713;28;20123;-84
2022/12/25 12:46:54;;;;;;;23.05;9.68;;;9.30;99.90;;;;;;5115200;28;20030;-84
2022/12/25 12:49:39;;;;;;;22.25;10.63;;;;;;;;;;5115011;28;20054;-84
2022/12/25 12:52:35;;;;;;;23.27;11.07;;;9.30;99.90;;;;;;5114821;28;20063;-83
2022/12/25 12:55:34;;;;;;;21.95;10.73;;;9.30;99.90;;;;;;5114486;28;20055;-84
2022/12/25 12:58:36;;;;;;;22.50;11.77;;;9.30;99.90;;;;;;5114457;28;20081;-84
2022/12/25 13:01:30;;;;;;;19.48;11.00;;;9.30;99.90;;;;;;5114550;28;20123;-84
2022/12/25 13:04:33;;;;;;;25.85;13.65;;;9.30;99.90;;;;;;5067803;28;20101;-84
2022/12/25 13:07:43;;;;;;;24.00;12.30;;;9.30;99.90;;;;;;5100198;28;20104;-83
2022/12/25 13:10:28;;;;;;;19.73;12.60;;;;;;;;;;5114210;28;20062;-83
2022/12/25 13:13:17;;;;;;;25.73;12.93;;;;;;;;;;5114424;28;20046;-84
2022/12/25 13:16:03;;;;;;;23.10;13.25;;;;;;;;;;5090062;28;20031;-84
2022/12/25 13:18:50;;;;;;;26.13;15.52;;;9.30;99.90;;;;;;5114486;28;20057;-84
2022/12/25 13:21:35;;;;;;;23.70;14.45;;;;;;;;;;5114092;28;20073;-84
2022/12/25 13:24:23;;;;;;;32.38;15.93;;;9.30;99.90;;;;;;5086337;28;20407;-84
2022/12/25 13:27:25;;;;;;;32.72;18.10;;;9.30;99.90;;;;;;5098918;28;20038;-84
2022/12/25 13:30:17;;;;;;;38.17;20.58;;;9.30;99.90;;;;;;5099085;28;20035;-83
2022/12/25 13:33:02;;;;;;;38.33;20.55;;;;;;;;;;5094628;28;20046;-84
2022/12/25 13:35:47;;;;;;;41.13;20.85;;;;;;;;;;5107303;28;20411;-84
2022/12/25 13:38:32;;;;;;;42.33;20.92;;;;;;;;;;5098397;28;20034;-84
2022/12/25 13:44:28;;;;;;;39.40;19.80;;;9.30;99.90;;;;;;5113681;28;20039;-84
2022/12/25 13:47:13;;;;;;;37.28;19.67;;;;;;;;;;5091351;28;20081;-84
2022/12/25 13:50:00;;;;;;;38.13;20.52;;;9.30;99.90;;;;;;5113906;28;20026;-84
2022/12/25 13:52:45;;;;;;;43.83;20.45;;;;;;;;;;5114223;28;20396;-84
2022/12/25 13:55:30;;;;;;;38.28;18.80;;;;;;;;;;5086640;28;20046;-84
2022/12/25 13:58:28;;;;;;;38.50;19.27;;;9.20;99.90;;;;;;5113717;28;20047;-84
2022/12/25 14:01:15;;;;;;;39.20;19.40;;;9.20;99.90;;;;;;5098548;28;20510;-84
2022/12/25 14:03:59;;;;;;;37.42;18.30;;;;;;;;;;5113627;28;20444;-84
2022/12/25 14:06:44;;;;;;;45.53;19.10;;;;;;;;;;5098245;28;20111;-84
2022/12/25 14:09:29;;;;;;;32.38;17.10;;;;;;;;;;5113104;28;20456;-84
2022/12/25 14:12:14;;;;;;;36.42;19.33;;;;;;;;;;5113368;28;20081;-84
2022/12/25 14:14:59;;;;;;;34.17;17.48;;;;;;;;;;5111947;28;20042;-84
2022/12/25 14:17:45;;;;;;;32.03;17.48;;;;;;;;;;5085154;28;20093;-85
2022/12/25 14:20:37;;;;;;;33.33;17.25;;;9.20;99.90;;;;;;5089004;28;20500;-84
2022/12/25 14:23:22;;;;;;;30.65;16.88;;;;;;;;;;5076754;28;20070;-85
2022/12/25 14:26:17;;;;;;;27.23;15.35;;;9.20;99.90;;;;;;5092840;28;20067;-84
2022/12/25 14:29:07;;;;;;;33.95;16.48;;;;;;;;;;5092852;28;20074;-84
2022/12/25 14:31:51;;;;;;;30.17;17.80;;;9.20;99.90;;;;;;5110104;28;20057;-84
2022/12/25 14:34:36;;;;;;;29.33;16.13;;;;;;;;;;5104337;28;20039;-84
2022/12/25 14:37:24;;;;;;;29.67;16.15;;;9.20;99.90;;;;;;5091718;28;20116;-84
2022/12/25 14:40:31;;;;;;;30.73;16.83;;;9.30;99.90;;;;;;5105472;28;20050;-84
2022/12/25 14:43:23;;;;;;;28.00;16.65;;;9.20;99.90;;;;;;5078521;28;20029;-82
2022/12/25 14:46:08;;;;;;;26.13;17.10;;;;;;;;;;5110429;28;20035;-85
2022/12/25 14:49:04;;;;;;;31.60;17.85;;;9.20;99.90;;;;;;5079972;28;20038;-84
2022/12/25 14:51:49;;;;;;;24.88;16.40;;;;;;;;;;5104204;28;20062;-84
2022/12/25 14:54:34;;;;;;;30.58;16.92;;;;;;;;;;5109881;28;20080;-84
2022/12/25 14:57:47;;;;;;;32.22;18.30;;;9.30;99.90;;;;;;5089462;28;20064;-85
2022/12/25 15:00:34;;;;;;;28.05;16.92;;;;;;;;;;5070257;28;20043;-86
2022/12/25 15:03:35;;;;;;;33.03;17.58;;;9.20;99.90;;;;;;5086651;28;20085;-84
2022/12/25 15:06:23;;;;;;;27.63;18.00;;;9.10;99.90;;;;;;5092013;28;20062;-85
2022/12/25 15:09:15;;;;;;;27.95;18.42;;;9.10;99.90;;;;;;5109332;28;20035;-85
2022/12/25 15:12:00;;;;;;;33.30;18.33;;;;;;;;;;5080873;28;20545;-84
2022/12/25 15:14:44;;;;;;;28.73;17.38;;;;;;;;;;5109046;28;20035;-84
2022/12/25 15:17:29;;;;;;;28.02;17.55;;;;;;;;;;5109225;28;20078;-86
2022/12/25 15:20:14;;;;;;;30.42;17.70;;;;;;;;;;5091318;28;20120;-85
2022/12/25 15:22:59;;;;;;;35.67;18.33;;;;;;;;;;5110952;28;20122;-84
2022/12/25 15:25:46;;;;;;;30.85;18.42;;;;;;;;;;5112414;28;20597;-84
2022/12/25 15:28:30;;;;;;;31.48;18.35;;;;;;;;;;5114156;28;20161;-85
2022/12/25 15:31:21;;;;;;;34.53;19.70;;;;;;;;;;5095645;28;20108;-84
2022/12/25 15:34:19;;;;;;;30.80;18.80;;;9.10;99.90;;;;;;5113287;28;20038;-85
2022/12/25 15:37:04;;;;;;;33.42;18.75;;;;;;;;;;5094612;28;20034;-85
2022/12/25 15:39:49;;;;;;;37.80;20.42;;;;;;;;;;5094054;28;20081;-85
2022/12/25 15:42:33;;;;;;;33.70;19.05;;;;;;;;;;5072403;28;20042;-86
2022/12/25 15:45:27;;;;;;;32.47;18.60;;;;;;;;;;5080192;28;20054;-85
2022/12/25 15:48:12;;;;;;;34.92;18.55;;;;;;;;;;5080184;28;20039;-84
2022/12/25 15:50:56;;;;;;;31.80;19.13;;;;;;;;;;5070691;28;20438;-84
2022/12/25 15:53:41;;;;;;;35.70;18.63;;;;;;;;;;5093807;28;20040;-84
2022/12/25 15:56:26;;;;;;;37.75;18.73;;;;;;;;;;5079976;28;20538;-85
2022/12/25 15:59:12;;;;;;;34.83;18.40;;;9.00;99.90;;;;;;5080005;28;20051;-84
2022/12/25 16:01:59;;;;;;;31.95;19.33;;;9.00;99.90;;;;;;5094835;28;20200;-81
2022/12/25 16:04:43;;;;;;;31.25;17.98;;;;;;;;;;5087493;28;20515;-83
2022/12/25 16:07:30;;;;;;;31.65;18.52;;;;;;;;;;5079850;28;20039;-82
2022/12/25 16:10:18;;;;;;;32.72;19.20;;;9.00;99.90;;;;;;5079857;28;20090;-82
2022/12/25 16:13:02;;;;;;;43.00;18.95;;;;;;;;;;5070915;28;20043;-82
2022/12/25 16:15:47;;;;;;;32.88;17.90;;;;;;;;;;5084925;28;20085;-83
2022/12/25 16:18:31;;;;;;;31.05;18.23;;;;;;;;;;5087834;28;20107;-83
2022/12/25 16:21:17;;;;;;;35.65;19.02;;;;;;;;;;5095718;28;20038;-82
2022/12/25 16:24:02;;;;;;;38.53;19.67;;;9.00;99.90;;;;;;5096337;28;20544;-82
2022/12/25 16:26:47;;;;;;;35.17;19.42;;;;;;;;;;5114343;28;20043;-82
2022/12/25 16:29:32;;;;;;;33.42;18.67;;;;;;;;;;5077295;28;20035;-82
2022/12/25 16:32:16;;;;;;;32.38;18.70;;;;;;;;;;5108112;28;20471;-82
2022/12/25 16:35:01;;;;;;;29.00;18.23;;;;;;;;;;5087106;28;20035;-82
2022/12/25 16:37:45;;;;;;;35.10;19.00;;;;;;;;;;5106219;28;20488;-83
2022/12/25 16:40:30;;;;;;;138.55;70.20;;;9.00;99.90;;;;;;5094656;28;20066;-82
2022/12/25 16:43:15;;;;;;;74.57;38.88;;;;;;;;;;5094471;28;20502;-81
2022/12/25 16:45:59;;;;;;;79.78;52.65;;;;;;;;;;5093979;28;20412;-84
2022/12/25 16:48:44;;;;;;;95.95;61.13;;;;;;;;;;5078692;28;20105;-87
2022/12/25 16:51:29;;;;;;;118.30;64.80;;;;;;;;;;5092823;28;20140;-85
2022/12/25 16:54:14;;;;;;;58.95;30.52;;;;;;;;;;5107680;28;20089;-84
2022/12/25 16:56:58;;;;;;;68.05;45.42;;;;;;;;;;5092745;28;20559;-84
2022/12/25 16:59:42;;;;;;;55.20;32.20;;;;;;;;;;5078747;28;20515;-86
2022/12/25 17:02:27;;;;;;;46.45;27.00;;;;;;;;;;5107568;28;20507;-86
2022/12/25 17:05:12;;;;;;;39.10;21.50;;;;;;;;;;5106240;28;20054;-85
2022/12/25 17:07:58;;;;;;;48.15;22.83;;;;;;;;;;5103637;28;20043;-85
2022/12/25 17:10:42;;;;;;;43.70;24.42;;;;;;;;;;5088929;28;20039;-85
2022/12/25 17:13:27;;;;;;;56.03;35.05;;;;;;;;;;5104756;28;20051;-86